Time;durP1;ratioP1;P1;durP2;ratioP2;P2;SDS_P1;SDS_P2;PMS_P1;PMS_P2;Temp;Humidity;BMP_temperature;BMP_pressure;BME280_temperature;BME280_humidity;BME280_pressure;Samples;Min_cycle;Max_cycle;Signal;HPM_P1;HPM_P2
2024/03/16 00:00:23;;;;;;;6.67;3.70;;;11.10;1.00;;;;;;5093855;28;20221;-80
2024/03/16 00:02:50;;;;;;;6.33;3.50;;;11.10;1.00;;;;;;5099088;28;20317;-80
2024/03/16 00:05:17;;;;;;;6.57;3.70;;;11.00;1.00;;;;;;5099169;28;20303;-79
2024/03/16 00:07:44;;;;;;;4.50;3.13;;;11.00;1.00;;;;;;5106499;28;20294;-79
2024/03/16 00:10:11;;;;;;;6.37;3.30;;;10.90;1.00;;;;;;5091112;28;20248;-80
2024/03/16 00:12:38;;;;;;;8.10;3.10;;;10.90;1.00;;;;;;5099292;28;20275;-80
2024/03/16 00:15:05;;;;;;;4.53;3.23;;;10.90;1.00;;;;;;5103192;28;20255;-80
2024/03/16 00:17:32;;;;;;;7.70;3.93;;;10.90;1.00;;;;;;5099461;28;20571;-79
2024/03/16 00:19:59;;;;;;;9.30;3.00;;;10.90;1.00;;;;;;5104972;28;20220;-79
2024/03/16 00:22:26;;;;;;;7.03;2.70;;;10.90;1.00;;;;;;5097864;28;20281;-79
2024/03/16 00:24:53;;;;;;;4.80;2.97;;;10.80;1.00;;;;;;5099176;28;20267;-79
2024/03/16 00:27:21;;;;;;;5.27;2.57;;;10.80;1.00;;;;;;5095106;28;20200;-79
2024/03/16 00:29:48;;;;;;;6.73;2.60;;;10.90;1.00;;;;;;5103332;28;20197;-79
2024/03/16 00:32:15;;;;;;;6.57;2.57;;;10.90;1.00;;;;;;5104703;28;20238;-80
2024/03/16 00:34:42;;;;;;;3.67;2.70;;;11.00;99.90;;;;;;5103091;28;20201;-80
2024/03/16 00:37:09;;;;;;;6.27;2.60;;;11.00;99.90;;;;;;5099118;28;20203;-80
2024/03/16 00:39:36;;;;;;;6.30;2.80;;;11.00;99.90;;;;;;5113818;28;20246;-80
2024/03/16 00:42:03;;;;;;;6.90;3.20;;;11.10;99.90;;;;;;5100261;28;20228;-80
2024/03/16 00:44:30;;;;;;;5.83;2.60;;;11.10;99.90;;;;;;5100408;28;20239;-80
2024/03/16 00:46:57;;;;;;;5.10;2.47;;;11.10;99.90;;;;;;5103403;28;20193;-79
2024/03/16 00:49:24;;;;;;;5.47;2.73;;;11.20;99.90;;;;;;5100913;28;20255;-79
2024/03/16 00:51:51;;;;;;;7.73;3.20;;;11.20;28.40;;;;;;5117231;28;20221;-79
2024/03/16 00:54:18;;;;;;;6.73;3.13;;;11.30;1.00;;;;;;5085299;28;20196;-80
2024/03/16 00:56:46;;;;;;;4.40;2.80;;;11.20;1.00;;;;;;5099615;28;20221;-79
2024/03/16 00:59:13;;;;;;;7.33;3.20;;;11.10;1.00;;;;;;5102130;28;20201;-80
2024/03/16 01:01:40;;;;;;;5.17;2.93;;;11.10;1.00;;;;;;5118208;28;20279;-79
2024/03/16 01:04:07;;;;;;;6.80;2.93;;;11.10;1.00;;;;;;5100760;28;20262;-79
2024/03/16 01:06:34;;;;;;;6.67;3.43;;;11.00;40.00;;;;;;5104708;28;20225;-79
2024/03/16 01:09:02;;;;;;;9.30;3.40;;;11.00;1.00;;;;;;5103942;28;20201;-79
2024/03/16 01:11:29;;;;;;;6.27;3.20;;;11.00;1.00;;;;;;5094861;28;20281;-79
2024/03/16 01:13:56;;;;;;;8.37;3.67;;;11.00;1.00;;;;;;5091396;28;20202;-80
2024/03/16 01:16:23;;;;;;;8.03;3.80;;;11.00;1.00;;;;;;5115497;28;20201;-79
2024/03/16 01:18:50;;;;;;;5.93;2.90;;;11.00;1.00;;;;;;5102398;28;20201;-80
2024/03/16 01:21:18;;;;;;;5.07;3.20;;;10.90;1.00;;;;;;5110441;28;20220;-80
2024/03/16 01:23:46;;;;;;;7.63;3.53;;;10.90;1.00;;;;;;5102086;28;20217;-80
2024/03/16 01:26:13;;;;;;;6.83;3.30;;;10.80;98.40;;;;;;5094907;28;20223;-80
2024/03/16 01:28:40;;;;;;;5.00;3.30;;;10.90;99.90;;;;;;5101722;28;20205;-80
2024/03/16 01:31:08;;;;;;;11.37;4.00;;;10.90;99.90;;;;;;5100016;28;20286;-80
2024/03/16 01:33:35;;;;;;;8.53;4.30;;;11.00;1.00;;;;;;5098035;28;20281;-79
2024/03/16 01:36:03;;;;;;;6.07;3.80;;;10.90;1.00;;;;;;5095003;28;20567;-80
2024/03/16 01:38:30;;;;;;;7.13;3.67;;;10.90;53.30;;;;;;5110488;28;20236;-79
2024/03/16 01:40:57;;;;;;;4.23;3.37;;;10.90;76.80;;;;;;5096619;28;20244;-79
2024/03/16 01:43:24;;;;;;;6.87;3.07;;;10.90;54.60;;;;;;5100353;28;20205;-79
2024/03/16 01:45:51;;;;;;;8.80;3.70;;;10.90;3.70;;;;;;5096883;28;20240;-79
2024/03/16 01:48:18;;;;;;;9.03;3.33;;;10.90;1.00;;;;;;5093693;28;20209;-80
2024/03/16 01:50:45;;;;;;;4.43;3.33;;;10.90;74.50;;;;;;5113859;28;20228;-79
2024/03/16 01:53:12;;;;;;;7.17;3.30;;;10.80;99.90;;;;;;5095883;28;20284;-79
2024/03/16 01:55:39;;;;;;;8.43;3.30;;;10.80;99.90;;;;;;5098712;28;20238;-80
2024/03/16 01:58:07;;;;;;;7.40;3.67;;;10.80;99.90;;;;;;5100941;28;20233;-79
2024/03/16 02:00:34;;;;;;;12.33;3.63;;;10.70;1.00;;;;;;5102712;28;20233;-80
2024/03/16 02:03:02;;;;;;;11.13;3.80;;;10.80;99.90;;;;;;5101279;28;20765;-80
2024/03/16 02:05:29;;;;;;;7.83;3.60;;;10.90;99.90;;;;;;5098921;28;20563;-80
2024/03/16 02:07:56;;;;;;;6.43;3.43;;;10.90;99.90;;;;;;5092548;28;20204;-80
2024/03/16 02:10:23;;;;;;;6.93;3.07;;;10.90;65.30;;;;;;5107718;28;20225;-80
2024/03/16 02:12:49;;;;;;;7.50;3.10;;;10.90;1.00;;;;;;5108758;28;20208;-79
2024/03/16 02:15:18;;;;;;;6.90;3.20;;;10.90;1.00;;;;;;5093123;28;20221;-79
2024/03/16 02:17:46;;;;;;;7.63;3.40;;;10.90;17.50;;;;;;5092468;28;20292;-80
2024/03/16 02:20:15;;;;;;;8.80;3.73;;;10.90;1.00;;;;;;5091841;28;20269;-80
2024/03/16 02:22:42;;;;;;;10.90;4.23;;;10.80;12.80;;;;;;5104300;28;20229;-80
2024/03/16 02:25:10;;;;;;;9.23;3.83;;;10.90;1.00;;;;;;5097670;28;20274;-79
2024/03/16 02:27:37;;;;;;;8.07;3.50;;;10.90;1.00;;;;;;5096853;28;20219;-80
2024/03/16 02:30:05;;;;;;;8.20;4.13;;;10.80;1.00;;;;;;5093353;28;20408;-79
2024/03/16 02:32:32;;;;;;;6.80;3.80;;;10.80;1.00;;;;;;5094555;28;20217;-80
2024/03/16 02:34:59;;;;;;;9.57;3.97;;;10.80;1.00;;;;;;5101431;28;20567;-79
2024/03/16 02:37:26;;;;;;;10.17;3.87;;;10.90;1.00;;;;;;5096886;28;20200;-79
2024/03/16 02:39:53;;;;;;;9.87;4.13;;;10.90;1.00;;;;;;5100668;28;20754;-79
2024/03/16 02:42:20;;;;;;;12.33;4.47;;;10.90;1.00;;;;;;5096391;28;20283;-79
2024/03/16 02:44:47;;;;;;;8.40;3.93;;;10.90;1.00;;;;;;5089916;28;20221;-79
2024/03/16 02:47:14;;;;;;;7.27;3.63;;;10.90;1.00;;;;;;5095407;28;20208;-79
2024/03/16 02:49:41;;;;;;;9.70;4.27;;;10.80;1.00;;;;;;5114245;28;20262;-79
2024/03/16 02:52:09;;;;;;;10.30;4.50;;;10.80;1.00;;;;;;5098011;28;20246;-79
2024/03/16 02:54:36;;;;;;;9.40;4.10;;;10.80;1.00;;;;;;5091297;28;20190;-79
2024/03/16 02:57:03;;;;;;;7.87;3.80;;;10.90;1.00;;;;;;5097593;28;20201;-80
2024/03/16 02:59:30;;;;;;;7.90;4.43;;;11.00;1.00;;;;;;5101655;28;20201;-80
2024/03/16 03:01:57;;;;;;;9.07;4.00;;;10.90;1.00;;;;;;5096580;28;20670;-79
2024/03/16 03:04:24;;;;;;;9.87;3.47;;;10.90;1.00;;;;;;5097444;28;20244;-80
2024/03/16 03:06:51;;;;;;;11.93;5.10;;;10.90;1.00;;;;;;5111489;28;20570;-80
2024/03/16 03:09:20;;;;;;;12.23;4.33;;;10.90;1.00;;;;;;5095829;28;20262;-79
2024/03/16 03:11:48;;;;;;;9.97;4.47;;;11.00;1.00;;;;;;5101904;28;20229;-79
2024/03/16 03:14:15;;;;;;;8.53;3.60;;;11.00;1.00;;;;;;5099228;28;20239;-80
2024/03/16 03:16:42;;;;;;;10.10;4.17;;;11.00;1.00;;;;;;5101364;28;20205;-79
2024/03/16 03:19:09;;;;;;;10.30;3.90;;;11.00;1.00;;;;;;5100020;28;20201;-80
2024/03/16 03:21:36;;;;;;;9.87;3.63;;;11.00;1.00;;;;;;5095087;28;20291;-80
2024/03/16 03:24:03;;;;;;;8.40;3.30;;;11.00;1.00;;;;;;5095049;28;20581;-79
2024/03/16 03:26:30;;;;;;;9.90;3.97;;;11.00;1.00;;;;;;5085391;28;20202;-79
2024/03/16 03:28:57;;;;;;;10.00;3.03;;;11.00;1.00;;;;;;5099626;28;20238;-80
2024/03/16 03:31:25;;;;;;;10.30;3.27;;;10.90;1.00;;;;;;5096102;28;20222;-79
2024/03/16 03:33:52;;;;;;;8.57;2.93;;;11.00;1.00;;;;;;5092008;28;20200;-79
2024/03/16 03:36:19;;;;;;;13.40;3.20;;;10.90;1.00;;;;;;5093118;28;20208;-79
2024/03/16 03:38:46;;;;;;;11.93;3.43;;;11.00;1.00;;;;;;5096710;28;20204;-79
2024/03/16 03:41:13;;;;;;;10.13;3.17;;;11.00;1.00;;;;;;5091824;28;20257;-79
2024/03/16 03:43:40;;;;;;;8.40;2.87;;;11.00;1.00;;;;;;5109504;28;20197;-79
2024/03/16 03:46:13;;;;;;;10.80;3.60;;;11.00;1.00;;;;;;5096313;28;20240;-79
2024/03/16 03:48:49;;;;;;;9.77;3.73;;;11.00;1.00;;;;;;5098307;28;20212;-79
2024/03/16 03:51:16;;;;;;;8.47;3.27;;;11.00;99.90;;;;;;5097695;28;20219;-79
2024/03/16 03:53:42;;;;;;;8.73;3.13;;;11.10;99.90;;;;;;5098472;28;20616;-79
2024/03/16 03:56:09;;;;;;;8.77;3.70;;;11.00;99.90;;;;;;5098695;28;20212;-79
2024/03/16 03:58:36;;;;;;;6.47;3.10;;;11.10;99.90;;;;;;5099001;28;20197;-79
2024/03/16 04:01:03;;;;;;;6.17;3.10;;;11.00;99.90;;;;;;5094700;28;20606;-79
2024/03/16 04:03:30;;;;;;;10.30;3.70;;;11.00;1.00;;;;;;5093555;28;20675;-79
2024/03/16 04:05:58;;;;;;;10.00;3.60;;;11.00;1.00;;;;;;5104640;28;20590;-79
2024/03/16 04:08:25;;;;;;;9.83;3.60;;;10.90;1.00;;;;;;5092236;28;20202;-79
2024/03/16 04:10:52;;;;;;;8.43;3.70;;;10.90;99.90;;;;;;5107456;28;20249;-79
2024/03/16 04:13:19;;;;;;;7.13;3.70;;;10.90;99.90;;;;;;5097380;28;20232;-79
2024/03/16 04:15:46;;;;;;;10.10;3.33;;;10.90;1.00;;;;;;5103794;28;20579;-80
2024/03/16 04:18:13;;;;;;;7.57;3.40;;;10.90;99.90;;;;;;5102806;28;20237;-79
2024/03/16 04:20:40;;;;;;;8.33;3.70;;;10.90;99.90;;;;;;5102363;28;20252;-80
2024/03/16 04:23:08;;;;;;;8.50;3.30;;;10.90;99.90;;;;;;5109250;28;20200;-79
2024/03/16 04:25:35;;;;;;;7.87;3.63;;;10.90;99.90;;;;;;5087838;28;20221;-80
2024/03/16 04:28:02;;;;;;;6.00;3.03;;;11.00;99.90;;;;;;5108468;28;20224;-80
2024/03/16 04:30:29;;;;;;;7.13;3.37;;;11.00;85.90;;;;;;5094155;28;20219;-80
2024/03/16 04:32:56;;;;;;;5.37;3.30;;;11.00;1.00;;;;;;5090476;28;20197;-80
2024/03/16 04:35:23;;;;;;;5.53;2.70;;;11.10;36.80;;;;;;5096735;28;20714;-80
2024/03/16 04:37:52;;;;;;;8.10;3.50;;;11.10;1.00;;;;;;5094252;28;20669;-80
2024/03/16 04:40:19;;;;;;;6.37;3.40;;;11.00;1.00;;;;;;5091448;28;20225;-80
2024/03/16 04:42:46;;;;;;;4.53;2.90;;;11.00;1.00;;;;;;5093737;28;20626;-79
2024/03/16 04:45:13;;;;;;;6.70;3.03;;;11.10;1.00;;;;;;5095115;28;20214;-80
2024/03/16 04:47:40;;;;;;;8.33;3.20;;;11.10;1.00;;;;;;5110289;28;20197;-79
2024/03/16 04:50:08;;;;;;;5.93;2.90;;;11.00;1.00;;;;;;5094555;28;20200;-80
2024/03/16 04:52:35;;;;;;;7.90;3.20;;;11.00;1.00;;;;;;5092559;28;20752;-79
2024/03/16 04:55:03;;;;;;;5.97;3.23;;;11.00;1.00;;;;;;5098739;28;20390;-79
2024/03/16 04:57:30;;;;;;;7.07;3.30;;;10.90;1.00;;;;;;5101469;28;20292;-79
2024/03/16 04:59:57;;;;;;;6.57;3.30;;;10.90;1.00;;;;;;5099661;28;20220;-79
2024/03/16 05:02:23;;;;;;;7.03;3.47;;;10.90;1.00;;;;;;5097368;28;20256;-79
2024/03/16 05:04:51;;;;;;;6.53;3.40;;;10.90;1.00;;;;;;5112701;28;20263;-79
2024/03/16 05:07:18;;;;;;;9.83;3.90;;;10.80;1.00;;;;;;5102381;28;20219;-79
2024/03/16 05:09:45;;;;;;;8.70;3.53;;;10.80;1.00;;;;;;5105289;28;20273;-79
2024/03/16 05:12:13;;;;;;;7.57;3.80;;;10.80;1.00;;;;;;5096435;28;20218;-79
2024/03/16 05:14:40;;;;;;;6.40;3.47;;;10.70;13.60;;;;;;5106397;28;20193;-80
2024/03/16 05:17:07;;;;;;;9.43;4.10;;;10.70;1.00;;;;;;5106069;28;20232;-80
2024/03/16 05:19:34;;;;;;;8.10;3.80;;;10.70;99.90;;;;;;5095182;28;20197;-80
2024/03/16 05:22:02;;;;;;;8.37;3.70;;;10.60;99.90;;;;;;5105272;28;20248;-79
2024/03/16 05:24:29;;;;;;;5.43;4.10;;;10.50;99.90;;;;;;5098541;28;20205;-80
2024/03/16 05:26:56;;;;;;;6.40;3.93;;;10.50;99.90;;;;;;5104649;28;20209;-80
2024/03/16 05:29:23;;;;;;;10.40;5.73;;;10.50;99.90;;;;;;5096481;28;20201;-80
2024/03/16 05:31:56;;;;;;;8.03;4.13;;;10.40;99.90;;;;;;5108998;28;20225;-80
2024/03/16 05:34:24;;;;;;;7.90;3.90;;;10.50;99.90;;;;;;5086515;28;20296;-80
2024/03/16 05:36:51;;;;;;;8.53;4.17;;;10.50;99.90;;;;;;5089737;28;20727;-79
2024/03/16 05:39:18;;;;;;;7.33;4.00;;;10.60;99.90;;;;;;5082649;28;20229;-80
2024/03/16 05:41:45;;;;;;;7.37;4.10;;;10.60;99.90;;;;;;5091521;28;20312;-79
2024/03/16 05:44:12;;;;;;;7.83;4.30;;;10.60;99.90;;;;;;5083524;28;20205;-79
2024/03/16 05:46:39;;;;;;;7.63;4.20;;;10.70;99.90;;;;;;5085792;28;20726;-79
2024/03/16 05:49:06;;;;;;;5.43;3.87;;;10.80;99.90;;;;;;5091965;28;20233;-79
2024/03/16 05:51:33;;;;;;;7.13;4.00;;;10.80;99.90;;;;;;5090626;28;20217;-79
2024/03/16 05:54:00;;;;;;;8.73;4.17;;;10.80;99.90;;;;;;5092070;28;20235;-78
2024/03/16 05:56:27;;;;;;;6.30;3.93;;;10.80;99.90;;;;;;5108900;28;20744;-79
2024/03/16 05:58:54;;;;;;;6.97;4.20;;;10.80;99.90;;;;;;5089712;28;20214;-79
2024/03/16 06:01:21;;;;;;;7.03;4.80;;;10.80;99.90;;;;;;5089824;28;20225;-80
2024/03/16 06:03:49;;;;;;;7.87;4.43;;;10.80;37.90;;;;;;5095793;28;20232;-78
2024/03/16 06:06:16;;;;;;;7.73;4.80;;;10.90;99.90;;;;;;5090664;28;20217;-79
2024/03/16 06:08:44;;;;;;;10.30;5.60;;;10.80;99.90;;;;;;5092880;28;20281;-79
2024/03/16 06:11:11;;;;;;;8.13;5.07;;;10.80;1.00;;;;;;5099088;28;20228;-79
2024/03/16 06:13:38;;;;;;;9.20;5.80;;;10.70;1.00;;;;;;5088776;28;20246;-79
2024/03/16 06:16:05;;;;;;;10.60;6.43;;;10.70;99.90;;;;;;5084390;28;20243;-79
2024/03/16 06:18:32;;;;;;;12.27;6.60;;;10.60;1.00;;;;;;5090323;28;20235;-79
2024/03/16 06:20:59;;;;;;;12.67;7.00;;;10.60;1.00;;;;;;5082510;28;20260;-80
2024/03/16 06:23:26;;;;;;;14.17;7.93;;;10.60;99.90;;;;;;5089181;28;20635;-79
2024/03/16 06:26:01;;;;;;;16.33;8.13;;;10.60;99.90;;;;;;5099500;28;20233;-79
2024/03/16 06:28:28;;;;;;;11.10;7.80;;;10.60;1.00;;;;;;5090143;28;20204;-78
2024/03/16 06:31:07;;;;;;;14.93;7.77;;;10.60;1.00;;;;;;5086508;28;20323;-79
2024/03/16 06:33:34;;;;;;;14.57;7.67;;;10.60;1.00;;;;;;5096563;28;20246;-80
2024/03/16 06:36:03;;;;;;;13.77;7.57;;;10.60;1.00;;;;;;5094055;28;20198;-79
2024/03/16 06:38:30;;;;;;;16.70;8.60;;;10.60;1.00;;;;;;5090301;28;20197;-79
2024/03/16 06:40:57;;;;;;;13.80;7.13;;;10.60;1.00;;;;;;5093583;28;20232;-79
2024/03/16 06:43:24;;;;;;;14.00;7.50;;;10.60;1.00;;;;;;5085304;28;20198;-80
2024/03/16 06:45:51;;;;;;;13.47;7.10;;;10.60;1.00;;;;;;5088198;28;20294;-80
2024/03/16 06:48:18;;;;;;;15.80;7.90;;;10.70;1.00;;;;;;5086786;28;20257;-80
2024/03/16 06:50:46;;;;;;;13.47;7.47;;;10.70;1.00;;;;;;5094549;28;20246;-79
2024/03/16 06:53:13;;;;;;;13.70;7.73;;;10.80;1.00;;;;;;5085000;28;20198;-80
2024/03/16 06:55:40;;;;;;;13.60;7.80;;;10.80;99.90;;;;;;5086033;28;20255;-80
2024/03/16 06:58:09;;;;;;;13.07;7.73;;;10.80;1.00;;;;;;5088823;28;20246;-80
2024/03/16 07:00:37;;;;;;;17.70;8.87;;;10.90;1.00;;;;;;5093384;28;20201;-80
2024/03/16 07:03:05;;;;;;;12.70;7.77;;;10.90;1.00;;;;;;5092432;28;20206;-80
2024/03/16 07:05:32;;;;;;;15.20;8.50;;;11.00;1.00;;;;;;5085240;28;20707;-81
2024/03/16 07:08:00;;;;;;;15.00;8.17;;;11.00;1.00;;;;;;5102262;28;20212;-81
2024/03/16 07:10:26;;;;;;;12.97;7.70;;;11.00;1.00;;;;;;5087660;28;20215;-79
2024/03/16 07:12:53;;;;;;;13.33;8.60;;;11.00;1.00;;;;;;5107690;28;20196;-80
2024/03/16 07:15:20;;;;;;;17.33;9.33;;;11.00;1.00;;;;;;5087814;28;20687;-80
2024/03/16 07:17:47;;;;;;;15.60;8.77;;;11.10;1.00;;;;;;5088530;28;20205;-80
2024/03/16 07:20:14;;;;;;;13.80;7.70;;;11.10;1.00;;;;;;5088101;28;20197;-80
2024/03/16 07:22:41;;;;;;;14.87;8.43;;;11.20;1.00;;;;;;5092019;28;20252;-81
2024/03/16 07:25:08;;;;;;;15.00;8.37;;;11.20;1.00;;;;;;5084539;28;20243;-80
2024/03/16 07:27:36;;;;;;;12.30;7.67;;;11.20;1.00;;;;;;5086142;28;20249;-79
2024/03/16 07:30:03;;;;;;;15.87;7.63;;;11.20;1.00;;;;;;5091284;28;20202;-79
2024/03/16 07:32:30;;;;;;;13.47;8.33;;;11.20;1.00;;;;;;5087054;28;20710;-79
2024/03/16 07:34:57;;;;;;;13.00;7.70;;;11.20;1.00;;;;;;5090936;28;20718;-79
2024/03/16 07:37:24;;;;;;;14.73;8.77;;;11.30;99.90;;;;;;5087858;28;20675;-79
2024/03/16 07:39:51;;;;;;;15.97;8.43;;;11.20;99.90;;;;;;5092775;28;20706;-79
2024/03/16 07:42:18;;;;;;;13.63;7.67;;;11.20;1.00;;;;;;5092727;28;20285;-79
2024/03/16 07:44:45;;;;;;;14.37;8.07;;;11.20;1.00;;;;;;5092292;28;20205;-80
2024/03/16 07:47:12;;;;;;;15.70;8.20;;;11.10;50.50;;;;;;5091062;28;20243;-79
2024/03/16 07:49:39;;;;;;;13.83;8.00;;;11.00;99.90;;;;;;5088665;28;20567;-80
2024/03/16 07:52:06;;;;;;;15.10;8.03;;;10.90;99.90;;;;;;5107599;28;20651;-79
2024/03/16 07:54:33;;;;;;;15.03;8.30;;;10.90;99.90;;;;;;5091983;28;20251;-79
2024/03/16 07:57:01;;;;;;;23.27;13.50;;;10.70;99.90;;;;;;5094646;28;20212;-79
2024/03/16 07:59:27;;;;;;;19.17;9.60;;;10.60;99.90;;;;;;5090508;28;20634;-80
2024/03/16 08:01:54;;;;;;;6.67;3.60;;;10.50;99.90;;;;;;5090255;28;20259;-78
2024/03/16 08:04:21;;;;;;;4.00;2.93;;;9.80;99.90;;;;;;5085665;28;20220;-79
2024/03/16 08:06:48;;;;;;;3.73;2.33;;;9.70;99.90;;;;;;5090996;28;20305;-78
2024/03/16 08:09:15;;;;;;;3.93;3.37;;;9.60;99.90;;;;;;5088038;28;20232;-79
2024/03/16 08:11:42;;;;;;;4.27;3.00;;;9.50;99.90;;;;;;5090687;28;20746;-78
2024/03/16 08:14:11;;;;;;;5.17;3.57;;;9.30;99.90;;;;;;5084939;28;20209;-78
2024/03/16 08:16:38;;;;;;;4.07;2.50;;;9.40;99.90;;;;;;5091148;28;20201;-78
2024/03/16 08:19:05;;;;;;;3.17;2.40;;;9.30;99.90;;;;;;5108154;28;20198;-78
2024/03/16 08:21:32;;;;;;;3.50;2.50;;;9.30;99.90;;;;;;5091913;28;20920;-79
2024/03/16 08:24:00;;;;;;;2.03;1.50;;;9.30;99.90;;;;;;5081560;28;20711;-78
2024/03/16 08:26:28;;;;;;;6.07;2.27;;;9.30;1.00;;;;;;5084300;28;20244;-80
2024/03/16 08:28:55;;;;;;;1.87;1.70;;;9.30;1.00;;;;;;5088397;28;20227;-79
2024/03/16 08:31:22;;;;;;;2.60;2.00;;;9.30;1.00;;;;;;5108760;28;20252;-79
2024/03/16 08:33:49;;;;;;;2.97;1.87;;;9.40;1.00;;;;;;5095496;28;20233;-79
2024/03/16 08:36:16;;;;;;;2.77;1.60;;;9.60;1.00;;;;;;5089758;28;20330;-79
2024/03/16 08:38:43;;;;;;;3.33;2.10;;;9.60;1.00;;;;;;5093297;28;20241;-80
2024/03/16 08:41:10;;;;;;;3.07;2.03;;;9.60;99.90;;;;;;5105309;28;20217;-79
2024/03/16 08:43:37;;;;;;;3.70;2.70;;;9.70;99.90;;;;;;5095383;28;20244;-79
2024/03/16 08:46:06;;;;;;;3.40;2.00;;;9.60;1.00;;;;;;5093629;28;20704;-79
2024/03/16 08:48:33;;;;;;;2.77;2.40;;;9.60;99.90;;;;;;5097130;28;20209;-79
2024/03/16 08:51:00;;;;;;;3.77;1.93;;;9.70;99.90;;;;;;5095669;28;20216;-79
2024/03/16 08:53:27;;;;;;;2.00;1.70;;;9.60;1.00;;;;;;5090332;28;20422;-80
2024/03/16 08:55:56;;;;;;;3.50;1.90;;;9.50;1.00;;;;;;5095584;28;20229;-79
2024/03/16 08:58:24;;;;;;;2.93;2.47;;;9.60;1.00;;;;;;5097862;28;20621;-79
2024/03/16 09:00:53;;;;;;;4.30;3.27;;;9.60;1.00;;;;;;5096826;28;20254;-79
2024/03/16 09:03:21;;;;;;;2.40;1.90;;;9.70;99.90;;;;;;5097633;28;20288;-80
2024/03/16 09:05:48;;;;;;;2.90;2.30;;;9.80;99.90;;;;;;5092230;28;20595;-80
2024/03/16 09:08:14;;;;;;;3.67;2.50;;;9.90;1.00;;;;;;5090798;28;20655;-79
2024/03/16 09:10:41;;;;;;;2.60;2.10;;;10.00;1.00;;;;;;5092696;28;20233;-79
2024/03/16 09:13:10;;;;;;;3.23;2.37;;;10.00;99.90;;;;;;5095458;28;20209;-79
2024/03/16 09:15:37;;;;;;;3.23;2.20;;;10.10;99.90;;;;;;5088713;28;20698;-80
2024/03/16 09:18:04;;;;;;;2.87;2.27;;;10.30;1.00;;;;;;5089832;28;20632;-80
2024/03/16 09:20:31;;;;;;;5.57;2.43;;;10.10;1.00;;;;;;5090909;28;20206;-80
2024/03/16 09:22:59;;;;;;;4.10;2.97;;;10.10;1.00;;;;;;5086155;28;20654;-79
2024/03/16 09:25:26;;;;;;;2.57;2.30;;;10.00;1.00;;;;;;5089388;28;20209;-79
2024/03/16 09:27:53;;;;;;;2.77;1.53;;;9.70;1.00;;;;;;5091135;28;20200;-79
2024/03/16 09:30:21;;;;;;;1.70;1.03;;;9.30;1.00;;;;;;5088691;28;20285;-79
2024/03/16 09:32:48;;;;;;;2.47;1.33;;;9.00;1.00;;;;;;5089411;28;20241;-78
2024/03/16 09:35:15;;;;;;;1.37;1.17;;;8.50;99.90;;;;;;5090072;28;20232;-79
2024/03/16 09:37:42;;;;;;;2.27;1.20;;;8.40;1.00;;;;;;5088395;28;20223;-80
2024/03/16 09:40:10;;;;;;;1.27;1.00;;;8.30;1.00;;;;;;5093395;28;20232;-79
2024/03/16 09:42:37;;;;;;;2.53;0.90;;;8.30;1.00;;;;;;5092905;28;21118;-79
2024/03/16 09:45:07;;;;;;;2.50;0.77;;;8.30;1.00;;;;;;5095355;28;20244;-79
2024/03/16 09:47:34;;;;;;;5.23;1.23;;;8.50;1.00;;;;;;5089810;28;20294;-80
2024/03/16 09:50:05;;;;;;;5.67;1.37;;;8.50;99.90;;;;;;5089351;28;20205;-80
2024/03/16 09:52:32;;;;;;;1.80;1.40;;;8.60;99.90;;;;;;5095386;28;20225;-80
2024/03/16 09:54:59;;;;;;;5.30;1.20;;;8.90;1.00;;;;;;5093569;28;20625;-80
2024/03/16 09:57:29;;;;;;;2.73;1.33;;;8.90;1.00;;;;;;5105019;28;20264;-79
2024/03/16 09:59:56;;;;;;;4.17;1.20;;;8.90;1.00;;;;;;5089594;28;20738;-79
2024/03/16 10:02:23;;;;;;;5.70;2.50;;;9.20;1.00;;;;;;5093714;28;20734;-78
2024/03/16 10:04:50;;;;;;;4.30;2.43;;;9.20;99.90;;;;;;5093018;28;20266;-78
2024/03/16 10:07:17;;;;;;;5.20;1.60;;;9.20;1.00;;;;;;5094358;28;20711;-79
2024/03/16 10:09:53;;;;;;;5.10;1.23;;;9.30;1.00;;;;;;5086414;28;20250;-79
2024/03/16 10:12:21;;;;;;;3.10;1.23;;;9.10;1.00;;;;;;5088835;28;20343;-79
2024/03/16 10:15:08;;;;;;;1.50;1.07;;;8.70;1.00;;;;;;5084888;28;20209;-80
2024/03/16 10:17:36;;;;;;;3.93;1.10;;;8.40;1.00;;;;;;5091601;28;20545;-78
2024/03/16 10:20:06;;;;;;;3.57;0.83;;;8.10;1.00;;;;;;5088311;28;20631;-78
2024/03/16 10:22:34;;;;;;;4.07;1.10;;;8.10;99.90;;;;;;5085521;28;20225;-80
2024/03/16 10:25:09;;;;;;;3.97;1.10;;;8.30;99.90;;;;;;5090572;28;20209;-80
2024/03/16 10:27:37;;;;;;;2.47;1.33;;;8.30;1.00;;;;;;5091799;28;20308;-80
2024/03/16 10:30:05;;;;;;;6.53;1.40;;;8.30;1.00;;;;;;5096489;28;20232;-80
2024/03/16 10:32:33;;;;;;;4.60;1.50;;;8.50;1.00;;;;;;5089562;28;20225;-80
2024/03/16 10:35:04;;;;;;;7.00;1.83;;;8.70;99.90;;;;;;5092763;28;20235;-80
2024/03/16 10:37:33;;;;;;;4.90;1.67;;;9.00;99.90;;;;;;5088286;28;20189;-81
2024/03/16 10:40:00;;;;;;;4.77;1.57;;;9.20;1.00;;;;;;5092836;28;20197;-80
2024/03/16 10:42:27;;;;;;;9.87;2.43;;;9.50;1.00;;;;;;5090998;28;20282;-81
2024/03/16 10:44:57;;;;;;;3.63;1.80;;;9.70;1.00;;;;;;5090196;28;20558;-80
2024/03/16 10:47:24;;;;;;;4.33;1.77;;;9.70;1.00;;;;;;5091429;28;20241;-80
2024/03/16 10:49:51;;;;;;;5.90;2.13;;;9.70;1.00;;;;;;5094297;28;20199;-80
2024/03/16 10:52:19;;;;;;;5.20;2.13;;;9.60;10.50;;;;;;5090049;28;20647;-82
2024/03/16 10:54:47;;;;;;;6.27;2.67;;;9.50;1.00;;;;;;5094264;28;20686;-80
2024/03/16 10:57:14;;;;;;;5.43;2.60;;;9.60;1.00;;;;;;5085201;28;20200;-80
2024/03/16 10:59:43;;;;;;;6.37;2.50;;;9.40;1.00;;;;;;5093801;28;20201;-80
2024/03/16 11:02:13;;;;;;;6.23;2.17;;;9.40;99.90;;;;;;5092668;28;20220;-80
2024/03/16 11:04:51;;;;;;;8.97;3.47;;;9.30;99.90;;;;;;5095207;28;20580;-80
2024/03/16 11:07:19;;;;;;;6.03;2.50;;;9.40;99.90;;;;;;5089092;28;20560;-78
2024/03/16 11:09:46;;;;;;;7.53;2.30;;;9.30;16.40;;;;;;5093536;28;20308;-78
2024/03/16 11:12:31;;;;;;;6.47;2.30;;;9.10;1.00;;;;;;5085287;28;20213;-80
2024/03/16 11:15:32;;;;;;;4.93;2.30;;;9.00;1.00;;;;;;5110343;28;20300;-79
2024/03/16 11:18:28;;;;;;;5.67;2.03;;;9.00;1.00;;;;;;5093195;28;20193;-81
2024/03/16 11:20:55;;;;;;;7.07;1.83;;;9.10;1.00;;;;;;5097192;28;20221;-80
2024/03/16 11:23:23;;;;;;;9.80;1.70;;;9.10;99.90;;;;;;5086188;28;20200;-81
2024/03/16 11:25:50;;;;;;;7.20;1.67;;;9.00;99.90;;;;;;5107086;28;20229;-79
2024/03/16 11:28:17;;;;;;;5.13;1.50;;;9.20;99.90;;;;;;5084078;28;20711;-81
2024/03/16 11:30:43;;;;;;;5.87;1.47;;;9.20;99.90;;;;;;5095729;28;20235;-81
2024/03/16 11:33:14;;;;;;;6.77;1.70;;;9.30;1.00;;;;;;5090832;28;20300;-80
2024/03/16 11:35:40;;;;;;;3.73;1.43;;;9.20;1.00;;;;;;5087412;28;20209;-80
2024/03/16 11:38:10;;;;;;;7.17;1.47;;;9.40;1.00;;;;;;5090499;28;20199;-81
2024/03/16 11:40:37;;;;;;;8.83;1.90;;;9.40;1.00;;;;;;5087386;28;20210;-81
2024/03/16 11:43:05;;;;;;;6.97;2.20;;;9.50;1.00;;;;;;5081459;28;20206;-80
2024/03/16 11:45:33;;;;;;;5.53;1.37;;;9.40;1.00;;;;;;5101593;28;20220;-79
2024/03/16 11:48:00;;;;;;;7.63;1.80;;;9.60;1.00;;;;;;5088454;28;20231;-78
2024/03/16 11:50:26;;;;;;;8.37;1.80;;;9.60;1.00;;;;;;5102710;28;20197;-78
2024/03/16 11:52:53;;;;;;;7.70;1.93;;;9.50;1.00;;;;;;5089389;28;20549;-79
2024/03/16 11:55:21;;;;;;;4.67;1.90;;;9.50;1.00;;;;;;5092148;28;20208;-79
2024/03/16 11:57:48;;;;;;;5.37;1.80;;;9.40;1.00;;;;;;5101006;28;20324;-79
2024/03/16 12:00:17;;;;;;;5.87;2.07;;;9.40;1.00;;;;;;5092350;28;20561;-79
2024/03/16 12:02:44;;;;;;;6.77;1.97;;;9.30;1.00;;;;;;5093545;28;20221;-79
2024/03/16 12:05:10;;;;;;;7.50;2.57;;;9.30;1.00;;;;;;5085711;28;20704;-79
2024/03/16 12:07:37;;;;;;;9.23;2.60;;;9.30;1.00;;;;;;5102199;28;20278;-79
2024/03/16 12:10:04;;;;;;;9.60;2.77;;;9.10;1.00;;;;;;5100956;28;20212;-80
2024/03/16 12:12:31;;;;;;;7.07;2.53;;;9.30;1.00;;;;;;5100188;28;20243;-78
2024/03/16 12:15:10;;;;;;;8.20;3.93;;;9.40;1.00;;;;;;5096913;28;20677;-79
2024/03/16 12:17:37;;;;;;;9.07;2.73;;;9.60;1.00;;;;;;5093602;28;20633;-79
2024/03/16 12:20:05;;;;;;;9.57;2.83;;;9.80;1.00;;;;;;5078225;28;20205;-79
2024/03/16 12:22:33;;;;;;;8.07;2.63;;;9.80;1.00;;;;;;5083042;28;20774;-83
2024/03/16 12:24:59;;;;;;;8.90;3.03;;;9.70;1.00;;;;;;5090547;28;20239;-80
2024/03/16 12:27:27;;;;;;;6.50;2.73;;;9.80;1.00;;;;;;5085528;28;20301;-79
2024/03/16 12:29:53;;;;;;;6.97;2.60;;;9.80;1.00;;;;;;5085817;28;20296;-80
2024/03/16 12:32:20;;;;;;;5.90;2.50;;;9.70;1.00;;;;;;5084155;28;20603;-80
2024/03/16 12:34:46;;;;;;;7.67;2.30;;;9.70;1.00;;;;;;5084900;28;20201;-79
2024/03/16 12:37:13;;;;;;;6.53;1.97;;;9.70;1.00;;;;;;5097241;28;20201;-80
2024/03/16 12:39:40;;;;;;;8.43;2.10;;;9.80;1.00;;;;;;5085562;28;20201;-79
2024/03/16 12:42:07;;;;;;;4.47;2.03;;;9.80;1.00;;;;;;5091106;28;20733;-80
2024/03/16 12:44:33;;;;;;;6.87;2.20;;;9.70;1.00;;;;;;5086049;28;20248;-80
2024/03/16 12:47:00;;;;;;;6.80;1.83;;;9.80;1.00;;;;;;5083882;28;20226;-79
2024/03/16 12:49:27;;;;;;;6.27;1.57;;;9.80;99.90;;;;;;5079466;28;20233;-79
2024/03/16 12:51:53;;;;;;;4.17;1.77;;;9.80;99.90;;;;;;5081388;28;20279;-80
2024/03/16 12:54:20;;;;;;;6.40;2.00;;;9.80;99.90;;;;;;5102067;28;20209;-78
2024/03/16 12:56:47;;;;;;;3.97;1.43;;;9.60;99.90;;;;;;5099054;28;20225;-80